Gallatin Gateway, Montana
Current Conditions -  °F | °C
As of 9:56 AM on Saturday 25 Oct 2014 (Local Time) from KBZN Reporting Station
Moderate Fog Moderate Fog  
Wind Chill: 32°   Ceiling: 200
Heat Index: 32°   Visibility: 0mi
Dew Point: 32°   Wind: 3mph
Humidity: 100%   Direction: 240°WSW
Pressure: 30.01"   Gusts: NA
Location:  45.59°N, 111.2°W
Report Text: KBZN 251556Z 24003KT M1/4SM FG VV002 00/00 A3001 RMK AO2 SLP181 I1001 T00000000
Loading
Personal Weather Stations






























Interactive Weather Map
Tropical Storm Tracking
New forecast layout! Learn more

10-Day Weather Forecast

Advertisements
Track Severe Weather on mobile